sensor_id;sensor_type;location;lat;lon;timestamp;P1;durP1;ratioP1;P2;durP2;ratioP2
18308;SDS011;9280;50.276;18.650;2022-08-19T00:00:06;14.33;;;9.57;;
18308;SDS011;9280;50.276;18.650;2022-08-19T00:02:57;16.03;;;9.50;;
18308;SDS011;9280;50.276;18.650;2022-08-19T00:05:44;19.20;;;10.43;;
18308;SDS011;9280;50.276;18.650;2022-08-19T00:08:30;13.43;;;10.17;;
18308;SDS011;9280;50.276;18.650;2022-08-19T00:11:16;16.10;;;10.00;;
18308;SDS011;9280;50.276;18.650;2022-08-19T00:14:03;15.03;;;10.00;;
18308;SDS011;9280;50.276;18.650;2022-08-19T00:16:51;15.60;;;10.73;;
18308;SDS011;9280;50.276;18.650;2022-08-19T00:19:38;19.83;;;10.77;;
18308;SDS011;9280;50.276;18.650;2022-08-19T00:22:26;13.23;;;10.23;;
18308;SDS011;9280;50.276;18.650;2022-08-19T00:25:13;13.80;;;10.73;;
18308;SDS011;9280;50.276;18.650;2022-08-19T00:28:01;17.47;;;11.20;;
18308;SDS011;9280;50.276;18.650;2022-08-19T00:30:48;15.00;;;10.63;;
18308;SDS011;9280;50.276;18.650;2022-08-19T00:33:35;17.50;;;11.10;;
18308;SDS011;9280;50.276;18.650;2022-08-19T00:36:22;15.93;;;10.93;;
18308;SDS011;9280;50.276;18.650;2022-08-19T00:39:09;15.67;;;11.20;;
18308;SDS011;9280;50.276;18.650;2022-08-19T00:41:56;16.93;;;11.30;;
18308;SDS011;9280;50.276;18.650;2022-08-19T00:44:42;18.43;;;10.90;;
18308;SDS011;9280;50.276;18.650;2022-08-19T00:47:29;15.03;;;11.40;;
18308;SDS011;9280;50.276;18.650;2022-08-19T00:50:16;17.40;;;11.63;;
18308;SDS011;9280;50.276;18.650;2022-08-19T00:53:04;18.90;;;11.53;;
18308;SDS011;9280;50.276;18.650;2022-08-19T00:55:53;21.60;;;12.00;;
18308;SDS011;9280;50.276;18.650;2022-08-19T00:58:43;17.27;;;11.30;;
18308;SDS011;9280;50.276;18.650;2022-08-19T01:01:29;20.80;;;11.53;;
18308;SDS011;9280;50.276;18.650;2022-08-19T01:04:15;14.53;;;11.70;;
18308;SDS011;9280;50.276;18.650;2022-08-19T01:07:01;22.57;;;12.40;;
18308;SDS011;9280;50.276;18.650;2022-08-19T01:09:48;20.47;;;12.57;;
18308;SDS011;9280;50.276;18.650;2022-08-19T01:12:35;19.23;;;13.73;;
18308;SDS011;9280;50.276;18.650;2022-08-19T01:15:23;20.10;;;14.00;;
18308;SDS011;9280;50.276;18.650;2022-08-19T01:18:14;25.37;;;15.47;;
18308;SDS011;9280;50.276;18.650;2022-08-19T01:21:02;21.40;;;15.70;;
18308;SDS011;9280;50.276;18.650;2022-08-19T01:23:54;25.23;;;15.97;;
18308;SDS011;9280;50.276;18.650;2022-08-19T01:26:43;23.77;;;16.53;;
18308;SDS011;9280;50.276;18.650;2022-08-19T01:29:30;26.47;;;16.20;;
18308;SDS011;9280;50.276;18.650;2022-08-19T01:32:16;30.03;;;16.43;;
18308;SDS011;9280;50.276;18.650;2022-08-19T01:35:04;27.30;;;17.43;;
18308;SDS011;9280;50.276;18.650;2022-08-19T01:37:52;28.33;;;17.60;;
18308;SDS011;9280;50.276;18.650;2022-08-19T01:40:41;24.23;;;17.43;;
18308;SDS011;9280;50.276;18.650;2022-08-19T01:43:27;27.07;;;16.80;;
18308;SDS011;9280;50.276;18.650;2022-08-19T01:46:13;23.27;;;16.40;;
18308;SDS011;9280;50.276;18.650;2022-08-19T01:48:59;26.90;;;18.03;;
18308;SDS011;9280;50.276;18.650;2022-08-19T01:51:45;29.67;;;19.87;;
18308;SDS011;9280;50.276;18.650;2022-08-19T01:54:32;25.33;;;18.33;;
18308;SDS011;9280;50.276;18.650;2022-08-19T01:57:20;27.83;;;17.00;;
18308;SDS011;9280;50.276;18.650;2022-08-19T02:00:07;24.77;;;17.13;;
18308;SDS011;9280;50.276;18.650;2022-08-19T02:02:58;21.57;;;16.03;;
18308;SDS011;9280;50.276;18.650;2022-08-19T02:05:45;21.40;;;15.23;;
18308;SDS011;9280;50.276;18.650;2022-08-19T02:08:32;22.13;;;14.10;;
18308;SDS011;9280;50.276;18.650;2022-08-19T02:11:22;20.93;;;13.90;;
18308;SDS011;9280;50.276;18.650;2022-08-19T02:14:12;22.20;;;14.43;;
18308;SDS011;9280;50.276;18.650;2022-08-19T02:16:58;22.63;;;13.53;;
18308;SDS011;9280;50.276;18.650;2022-08-19T02:19:44;19.13;;;13.83;;
18308;SDS011;9280;50.276;18.650;2022-08-19T02:22:32;24.13;;;14.23;;
18308;SDS011;9280;50.276;18.650;2022-08-19T02:25:19;30.00;;;14.27;;
18308;SDS011;9280;50.276;18.650;2022-08-19T02:28:06;20.40;;;13.30;;
18308;SDS011;9280;50.276;18.650;2022-08-19T02:30:57;20.97;;;14.17;;
18308;SDS011;9280;50.276;18.650;2022-08-19T02:33:44;25.40;;;14.97;;
18308;SDS011;9280;50.276;18.650;2022-08-19T02:36:31;18.17;;;14.17;;
18308;SDS011;9280;50.276;18.650;2022-08-19T02:39:17;22.57;;;14.77;;
18308;SDS011;9280;50.276;18.650;2022-08-19T02:42:02;23.03;;;14.50;;
18308;SDS011;9280;50.276;18.650;2022-08-19T02:44:49;20.03;;;14.33;;
18308;SDS011;9280;50.276;18.650;2022-08-19T02:47:37;24.40;;;14.83;;
18308;SDS011;9280;50.276;18.650;2022-08-19T02:50:24;21.67;;;15.37;;
18308;SDS011;9280;50.276;18.650;2022-08-19T02:53:10;30.07;;;14.23;;
18308;SDS011;9280;50.276;18.650;2022-08-19T02:55:57;19.23;;;13.93;;
18308;SDS011;9280;50.276;18.650;2022-08-19T02:58:43;26.60;;;16.47;;
18308;SDS011;9280;50.276;18.650;2022-08-19T03:01:30;24.07;;;14.93;;
18308;SDS011;9280;50.276;18.650;2022-08-19T03:04:19;23.57;;;14.47;;
18308;SDS011;9280;50.276;18.650;2022-08-19T03:07:05;25.17;;;14.37;;
18308;SDS011;9280;50.276;18.650;2022-08-19T03:09:51;22.40;;;14.30;;
18308;SDS011;9280;50.276;18.650;2022-08-19T03:12:37;22.17;;;15.37;;
18308;SDS011;9280;50.276;18.650;2022-08-19T03:15:24;29.97;;;17.00;;
18308;SDS011;9280;50.276;18.650;2022-08-19T03:18:10;24.60;;;15.90;;
18308;SDS011;9280;50.276;18.650;2022-08-19T03:20:58;29.93;;;16.90;;
18308;SDS011;9280;50.276;18.650;2022-08-19T03:23:44;22.00;;;15.43;;
18308;SDS011;9280;50.276;18.650;2022-08-19T03:26:31;31.93;;;16.70;;
18308;SDS011;9280;50.276;18.650;2022-08-19T03:29:18;25.40;;;16.97;;
18308;SDS011;9280;50.276;18.650;2022-08-19T03:32:05;32.73;;;17.60;;
18308;SDS011;9280;50.276;18.650;2022-08-19T03:34:52;24.80;;;17.73;;
18308;SDS011;9280;50.276;18.650;2022-08-19T03:37:39;27.93;;;16.57;;
18308;SDS011;9280;50.276;18.650;2022-08-19T03:40:26;25.30;;;16.97;;
18308;SDS011;9280;50.276;18.650;2022-08-19T03:43:14;29.13;;;16.63;;
18308;SDS011;9280;50.276;18.650;2022-08-19T03:46:03;25.67;;;16.80;;
18308;SDS011;9280;50.276;18.650;2022-08-19T03:48:51;29.87;;;17.03;;
18308;SDS011;9280;50.276;18.650;2022-08-19T03:51:39;23.77;;;16.30;;
18308;SDS011;9280;50.276;18.650;2022-08-19T03:54:28;24.57;;;16.50;;
18308;SDS011;9280;50.276;18.650;2022-08-19T03:57:15;21.90;;;16.63;;
18308;SDS011;9280;50.276;18.650;2022-08-19T04:00:01;31.10;;;19.37;;
18308;SDS011;9280;50.276;18.650;2022-08-19T04:02:50;30.93;;;17.93;;
18308;SDS011;9280;50.276;18.650;2022-08-19T04:05:36;29.47;;;18.60;;
18308;SDS011;9280;50.276;18.650;2022-08-19T04:08:22;33.03;;;18.27;;
18308;SDS011;9280;50.276;18.650;2022-08-19T04:11:11;28.23;;;17.90;;
18308;SDS011;9280;50.276;18.650;2022-08-19T04:14:00;32.07;;;17.80;;
18308;SDS011;9280;50.276;18.650;2022-08-19T04:16:47;25.63;;;16.57;;
18308;SDS011;9280;50.276;18.650;2022-08-19T04:19:34;23.83;;;15.30;;
18308;SDS011;9280;50.276;18.650;2022-08-19T04:22:21;28.77;;;16.43;;
18308;SDS011;9280;50.276;18.650;2022-08-19T04:25:07;26.00;;;15.33;;
18308;SDS011;9280;50.276;18.650;2022-08-19T04:27:56;27.47;;;15.60;;
18308;SDS011;9280;50.276;18.650;2022-08-19T04:30:43;25.53;;;15.37;;
18308;SDS011;9280;50.276;18.650;2022-08-19T04:33:31;21.87;;;15.37;;
18308;SDS011;9280;50.276;18.650;2022-08-19T04:36:17;21.27;;;14.60;;
18308;SDS011;9280;50.276;18.650;2022-08-19T04:39:07;28.10;;;14.70;;
18308;SDS011;9280;50.276;18.650;2022-08-19T04:41:55;20.27;;;14.90;;
18308;SDS011;9280;50.276;18.650;2022-08-19T04:45:01;24.73;;;15.07;;
18308;SDS011;9280;50.276;18.650;2022-08-19T04:47:48;20.13;;;15.43;;
18308;SDS011;9280;50.276;18.650;2022-08-19T04:50:34;29.43;;;14.77;;
18308;SDS011;9280;50.276;18.650;2022-08-19T04:53:21;24.63;;;15.33;;
18308;SDS011;9280;50.276;18.650;2022-08-19T04:56:08;20.97;;;15.17;;
18308;SDS011;9280;50.276;18.650;2022-08-19T04:58:55;24.00;;;15.67;;
18308;SDS011;9280;50.276;18.650;2022-08-19T05:01:44;30.20;;;19.17;;
18308;SDS011;9280;50.276;18.650;2022-08-19T05:04:33;29.37;;;17.53;;
18308;SDS011;9280;50.276;18.650;2022-08-19T05:07:22;30.20;;;16.43;;
18308;SDS011;9280;50.276;18.650;2022-08-19T05:10:08;30.20;;;16.83;;
18308;SDS011;9280;50.276;18.650;2022-08-19T05:12:55;25.93;;;15.97;;
18308;SDS011;9280;50.276;18.650;2022-08-19T05:15:42;30.77;;;16.70;;
18308;SDS011;9280;50.276;18.650;2022-08-19T05:18:29;22.63;;;16.40;;
18308;SDS011;9280;50.276;18.650;2022-08-19T05:21:33;25.73;;;16.47;;
18308;SDS011;9280;50.276;18.650;2022-08-19T05:24:37;32.87;;;15.40;;
18308;SDS011;9280;50.276;18.650;2022-08-19T05:27:23;33.27;;;17.93;;
18308;SDS011;9280;50.276;18.650;2022-08-19T05:30:10;27.10;;;15.30;;
18308;SDS011;9280;50.276;18.650;2022-08-19T05:32:57;26.63;;;15.73;;
18308;SDS011;9280;50.276;18.650;2022-08-19T05:35:44;28.60;;;14.03;;
18308;SDS011;9280;50.276;18.650;2022-08-19T05:38:32;20.43;;;14.37;;
18308;SDS011;9280;50.276;18.650;2022-08-19T05:41:19;25.37;;;14.73;;
18308;SDS011;9280;50.276;18.650;2022-08-19T05:44:13;36.03;;;15.10;;
18308;SDS011;9280;50.276;18.650;2022-08-19T05:47:01;22.90;;;14.40;;
18308;SDS011;9280;50.276;18.650;2022-08-19T05:49:49;26.27;;;15.73;;
18308;SDS011;9280;50.276;18.650;2022-08-19T05:52:37;28.97;;;15.53;;
18308;SDS011;9280;50.276;18.650;2022-08-19T05:55:24;30.23;;;15.50;;
18308;SDS011;9280;50.276;18.650;2022-08-19T05:58:10;27.43;;;14.37;;
18308;SDS011;9280;50.276;18.650;2022-08-19T06:00:56;19.13;;;14.17;;
18308;SDS011;9280;50.276;18.650;2022-08-19T06:03:42;23.77;;;14.20;;
18308;SDS011;9280;50.276;18.650;2022-08-19T06:06:28;19.67;;;14.43;;
18308;SDS011;9280;50.276;18.650;2022-08-19T06:09:16;19.30;;;13.17;;
18308;SDS011;9280;50.276;18.650;2022-08-19T06:12:02;18.57;;;13.23;;
18308;SDS011;9280;50.276;18.650;2022-08-19T06:14:49;21.53;;;13.83;;
18308;SDS011;9280;50.276;18.650;2022-08-19T06:17:37;21.30;;;13.33;;
18308;SDS011;9280;50.276;18.650;2022-08-19T06:20:25;21.97;;;13.60;;
18308;SDS011;9280;50.276;18.650;2022-08-19T06:23:12;20.47;;;13.90;;
18308;SDS011;9280;50.276;18.650;2022-08-19T06:25:59;16.93;;;12.97;;
18308;SDS011;9280;50.276;18.650;2022-08-19T06:28:45;20.93;;;13.40;;
18308;SDS011;9280;50.276;18.650;2022-08-19T06:31:34;22.73;;;13.20;;
18308;SDS011;9280;50.276;18.650;2022-08-19T06:34:21;20.00;;;12.70;;
18308;SDS011;9280;50.276;18.650;2022-08-19T06:37:07;21.50;;;13.00;;
18308;SDS011;9280;50.276;18.650;2022-08-19T06:39:53;20.47;;;12.57;;
18308;SDS011;9280;50.276;18.650;2022-08-19T06:42:40;19.97;;;12.83;;
18308;SDS011;9280;50.276;18.650;2022-08-19T06:45:26;23.20;;;13.07;;
18308;SDS011;9280;50.276;18.650;2022-08-19T06:48:12;24.87;;;13.30;;
18308;SDS011;9280;50.276;18.650;2022-08-19T06:50:58;18.67;;;13.17;;
18308;SDS011;9280;50.276;18.650;2022-08-19T06:53:44;20.93;;;12.50;;
18308;SDS011;9280;50.276;18.650;2022-08-19T06:56:30;16.77;;;12.17;;
18308;SDS011;9280;50.276;18.650;2022-08-19T06:59:20;25.40;;;13.20;;
18308;SDS011;9280;50.276;18.650;2022-08-19T07:02:11;22.53;;;12.73;;
18308;SDS011;9280;50.276;18.650;2022-08-19T07:04:57;22.30;;;11.90;;
18308;SDS011;9280;50.276;18.650;2022-08-19T07:07:46;32.50;;;14.13;;
18308;SDS011;9280;50.276;18.650;2022-08-19T07:10:32;23.67;;;12.13;;
18308;SDS011;9280;50.276;18.650;2022-08-19T07:13:20;24.17;;;12.07;;
18308;SDS011;9280;50.276;18.650;2022-08-19T07:16:09;24.37;;;13.70;;
18308;SDS011;9280;50.276;18.650;2022-08-19T07:18:58;16.07;;;11.93;;
18308;SDS011;9280;50.276;18.650;2022-08-19T07:21:46;24.37;;;11.97;;
18308;SDS011;9280;50.276;18.650;2022-08-19T07:24:33;20.77;;;12.00;;
18308;SDS011;9280;50.276;18.650;2022-08-19T07:27:21;25.93;;;11.60;;
18308;SDS011;9280;50.276;18.650;2022-08-19T07:30:08;20.47;;;10.97;;
18308;SDS011;9280;50.276;18.650;2022-08-19T07:32:57;20.70;;;12.13;;
18308;SDS011;9280;50.276;18.650;2022-08-19T07:35:43;18.50;;;10.80;;
18308;SDS011;9280;50.276;18.650;2022-08-19T07:38:29;20.13;;;12.47;;
18308;SDS011;9280;50.276;18.650;2022-08-19T07:41:17;24.13;;;11.37;;
18308;SDS011;9280;50.276;18.650;2022-08-19T07:44:05;17.23;;;11.43;;
18308;SDS011;9280;50.276;18.650;2022-08-19T07:46:53;23.57;;;12.03;;
18308;SDS011;9280;50.276;18.650;2022-08-19T07:49:42;24.87;;;13.13;;
18308;SDS011;9280;50.276;18.650;2022-08-19T07:52:29;28.13;;;13.27;;
18308;SDS011;9280;50.276;18.650;2022-08-19T07:55:16;23.70;;;11.07;;
18308;SDS011;9280;50.276;18.650;2022-08-19T07:58:04;14.37;;;10.53;;
18308;SDS011;9280;50.276;18.650;2022-08-19T08:00:50;23.67;;;10.67;;
18308;SDS011;9280;50.276;18.650;2022-08-19T08:03:36;17.67;;;11.07;;
18308;SDS011;9280;50.276;18.650;2022-08-19T08:06:42;17.53;;;11.00;;
18308;SDS011;9280;50.276;18.650;2022-08-19T08:09:45;20.70;;;10.97;;
18308;SDS011;9280;50.276;18.650;2022-08-19T08:12:33;25.67;;;11.73;;
18308;SDS011;9280;50.276;18.650;2022-08-19T08:15:25;16.83;;;10.60;;
18308;SDS011;9280;50.276;18.650;2022-08-19T08:18:11;14.73;;;10.60;;
18308;SDS011;9280;50.276;18.650;2022-08-19T08:20:58;25.27;;;10.00;;
18308;SDS011;9280;50.276;18.650;2022-08-19T08:23:45;16.60;;;9.47;;
18308;SDS011;9280;50.276;18.650;2022-08-19T08:26:31;11.77;;;9.07;;
18308;SDS011;9280;50.276;18.650;2022-08-19T08:29:18;13.67;;;8.57;;
18308;SDS011;9280;50.276;18.650;2022-08-19T08:32:04;16.83;;;8.00;;
18308;SDS011;9280;50.276;18.650;2022-08-19T08:34:50;12.33;;;8.53;;
18308;SDS011;9280;50.276;18.650;2022-08-19T08:37:38;10.60;;;8.30;;
18308;SDS011;9280;50.276;18.650;2022-08-19T08:40:29;13.00;;;8.17;;
18308;SDS011;9280;50.276;18.650;2022-08-19T08:43:24;12.63;;;8.90;;
18308;SDS011;9280;50.276;18.650;2022-08-19T08:46:13;13.60;;;7.83;;
18308;SDS011;9280;50.276;18.650;2022-08-19T08:49:06;15.47;;;8.27;;
18308;SDS011;9280;50.276;18.650;2022-08-19T08:52:04;17.00;;;8.50;;
18308;SDS011;9280;50.276;18.650;2022-08-19T08:54:55;11.97;;;9.00;;
18308;SDS011;9280;50.276;18.650;2022-08-19T08:57:49;18.43;;;8.73;;
18308;SDS011;9280;50.276;18.650;2022-08-19T09:00:39;18.20;;;8.57;;
18308;SDS011;9280;50.276;18.650;2022-08-19T09:03:29;10.33;;;8.47;;
18308;SDS011;9280;50.276;18.650;2022-08-19T09:06:19;12.43;;;8.40;;
18308;SDS011;9280;50.276;18.650;2022-08-19T09:09:12;15.10;;;9.37;;
18308;SDS011;9280;50.276;18.650;2022-08-19T09:12:04;22.13;;;9.13;;
18308;SDS011;9280;50.276;18.650;2022-08-19T09:14:58;19.03;;;9.20;;
18308;SDS011;9280;50.276;18.650;2022-08-19T09:17:48;14.23;;;8.97;;
18308;SDS011;9280;50.276;18.650;2022-08-19T09:20:34;16.17;;;9.57;;
18308;SDS011;9280;50.276;18.650;2022-08-19T09:23:21;19.43;;;9.47;;
18308;SDS011;9280;50.276;18.650;2022-08-19T09:26:08;16.47;;;10.00;;
18308;SDS011;9280;50.276;18.650;2022-08-19T09:28:57;26.03;;;10.37;;
18308;SDS011;9280;50.276;18.650;2022-08-19T09:31:47;16.80;;;9.20;;
18308;SDS011;9280;50.276;18.650;2022-08-19T09:34:33;17.57;;;10.37;;
18308;SDS011;9280;50.276;18.650;2022-08-19T09:37:19;16.77;;;10.00;;
18308;SDS011;9280;50.276;18.650;2022-08-19T09:40:06;21.77;;;13.00;;
18308;SDS011;9280;50.276;18.650;2022-08-19T09:42:54;18.87;;;11.50;;
18308;SDS011;9280;50.276;18.650;2022-08-19T09:45:41;18.37;;;11.50;;
18308;SDS011;9280;50.276;18.650;2022-08-19T09:48:28;18.10;;;9.53;;
18308;SDS011;9280;50.276;18.650;2022-08-19T09:51:15;18.57;;;10.00;;
18308;SDS011;9280;50.276;18.650;2022-08-19T09:54:03;15.73;;;8.60;;
18308;SDS011;9280;50.276;18.650;2022-08-19T09:56:49;14.13;;;10.10;;
18308;SDS011;9280;50.276;18.650;2022-08-19T09:59:36;18.67;;;10.73;;
18308;SDS011;9280;50.276;18.650;2022-08-19T10:02:24;16.70;;;10.10;;
18308;SDS011;9280;50.276;18.650;2022-08-19T10:05:11;16.83;;;9.20;;
18308;SDS011;9280;50.276;18.650;2022-08-19T10:08:15;19.07;;;8.97;;
18308;SDS011;9280;50.276;18.650;2022-08-19T10:11:03;14.63;;;9.70;;
18308;SDS011;9280;50.276;18.650;2022-08-19T10:13:49;15.93;;;8.97;;
18308;SDS011;9280;50.276;18.650;2022-08-19T10:16:36;14.57;;;8.90;;
18308;SDS011;9280;50.276;18.650;2022-08-19T10:19:23;16.23;;;9.87;;
18308;SDS011;9280;50.276;18.650;2022-08-19T10:22:10;14.73;;;9.40;;
18308;SDS011;9280;50.276;18.650;2022-08-19T10:24:58;17.63;;;9.10;;
18308;SDS011;9280;50.276;18.650;2022-08-19T10:27:45;20.80;;;9.37;;
18308;SDS011;9280;50.276;18.650;2022-08-19T10:30:31;16.67;;;8.80;;
18308;SDS011;9280;50.276;18.650;2022-08-19T10:33:17;23.00;;;10.00;;
18308;SDS011;9280;50.276;18.650;2022-08-19T10:36:04;10.37;;;8.97;;
18308;SDS011;9280;50.276;18.650;2022-08-19T10:38:54;14.00;;;8.73;;
18308;SDS011;9280;50.276;18.650;2022-08-19T10:41:42;14.23;;;8.97;;
18308;SDS011;9280;50.276;18.650;2022-08-19T10:44:27;15.57;;;8.80;;
18308;SDS011;9280;50.276;18.650;2022-08-19T10:47:14;14.83;;;8.67;;
18308;SDS011;9280;50.276;18.650;2022-08-19T10:50:00;14.50;;;9.13;;
18308;SDS011;9280;50.276;18.650;2022-08-19T10:53:03;12.33;;;9.03;;
18308;SDS011;9280;50.276;18.650;2022-08-19T10:55:53;18.33;;;9.17;;
18308;SDS011;9280;50.276;18.650;2022-08-19T10:58:56;14.97;;;8.33;;
18308;SDS011;9280;50.276;18.650;2022-08-19T11:01:43;14.50;;;8.77;;
18308;SDS011;9280;50.276;18.650;2022-08-19T11:04:30;15.83;;;8.70;;
18308;SDS011;9280;50.276;18.650;2022-08-19T11:07:17;14.23;;;8.03;;
18308;SDS011;9280;50.276;18.650;2022-08-19T11:10:03;13.10;;;7.80;;
18308;SDS011;9280;50.276;18.650;2022-08-19T11:12:51;11.07;;;8.13;;
18308;SDS011;9280;50.276;18.650;2022-08-19T11:15:38;13.70;;;8.20;;
18308;SDS011;9280;50.276;18.650;2022-08-19T11:18:24;11.10;;;8.17;;
18308;SDS011;9280;50.276;18.650;2022-08-19T11:21:11;15.10;;;8.10;;
18308;SDS011;9280;50.276;18.650;2022-08-19T11:23:59;11.23;;;7.50;;
18308;SDS011;9280;50.276;18.650;2022-08-19T11:26:47;16.87;;;7.77;;
18308;SDS011;9280;50.276;18.650;2022-08-19T11:29:37;13.53;;;7.37;;
18308;SDS011;9280;50.276;18.650;2022-08-19T11:32:23;9.83;;;7.27;;
18308;SDS011;9280;50.276;18.650;2022-08-19T11:35:09;12.60;;;7.67;;
18308;SDS011;9280;50.276;18.650;2022-08-19T11:37:55;28.27;;;7.97;;
18308;SDS011;9280;50.276;18.650;2022-08-19T11:40:43;13.03;;;7.77;;
18308;SDS011;9280;50.276;18.650;2022-08-19T11:43:29;18.43;;;9.53;;
18308;SDS011;9280;50.276;18.650;2022-08-19T11:46:17;10.90;;;7.93;;
18308;SDS011;9280;50.276;18.650;2022-08-19T11:49:03;16.00;;;7.27;;
18308;SDS011;9280;50.276;18.650;2022-08-19T11:51:53;13.57;;;7.47;;
18308;SDS011;9280;50.276;18.650;2022-08-19T11:54:39;11.40;;;6.90;;
18308;SDS011;9280;50.276;18.650;2022-08-19T11:57:25;16.10;;;6.63;;
18308;SDS011;9280;50.276;18.650;2022-08-19T12:00:11;11.97;;;7.30;;
18308;SDS011;9280;50.276;18.650;2022-08-19T12:02:58;14.70;;;7.30;;
18308;SDS011;9280;50.276;18.650;2022-08-19T12:05:44;14.60;;;6.57;;
18308;SDS011;9280;50.276;18.650;2022-08-19T12:08:30;9.80;;;6.53;;
18308;SDS011;9280;50.276;18.650;2022-08-19T12:11:16;10.87;;;6.67;;
18308;SDS011;9280;50.276;18.650;2022-08-19T12:14:05;10.17;;;6.77;;
18308;SDS011;9280;50.276;18.650;2022-08-19T12:16:52;11.80;;;7.50;;
18308;SDS011;9280;50.276;18.650;2022-08-19T12:19:38;13.73;;;7.47;;
18308;SDS011;9280;50.276;18.650;2022-08-19T12:22:24;9.17;;;6.57;;
18308;SDS011;9280;50.276;18.650;2022-08-19T12:25:10;9.50;;;6.80;;
18308;SDS011;9280;50.276;18.650;2022-08-19T12:27:57;11.60;;;6.53;;
18308;SDS011;9280;50.276;18.650;2022-08-19T12:30:43;14.93;;;7.97;;
18308;SDS011;9280;50.276;18.650;2022-08-19T12:33:29;11.20;;;6.07;;
18308;SDS011;9280;50.276;18.650;2022-08-19T12:36:17;17.03;;;6.47;;
18308;SDS011;9280;50.276;18.650;2022-08-19T12:39:03;12.50;;;7.17;;
18308;SDS011;9280;50.276;18.650;2022-08-19T12:41:50;11.57;;;7.53;;
18308;SDS011;9280;50.276;18.650;2022-08-19T12:44:36;10.87;;;6.07;;
18308;SDS011;9280;50.276;18.650;2022-08-19T12:47:24;15.37;;;8.10;;
18308;SDS011;9280;50.276;18.650;2022-08-19T12:50:10;13.83;;;6.67;;
18308;SDS011;9280;50.276;18.650;2022-08-19T12:52:58;13.03;;;6.87;;
18308;SDS011;9280;50.276;18.650;2022-08-19T12:55:43;10.43;;;6.70;;
18308;SDS011;9280;50.276;18.650;2022-08-19T12:58:29;12.10;;;6.80;;
18308;SDS011;9280;50.276;18.650;2022-08-19T13:01:16;12.57;;;7.03;;
18308;SDS011;9280;50.276;18.650;2022-08-19T13:04:03;11.00;;;6.43;;
18308;SDS011;9280;50.276;18.650;2022-08-19T13:06:49;12.73;;;7.37;;
18308;SDS011;9280;50.276;18.650;2022-08-19T13:09:36;13.13;;;7.60;;
18308;SDS011;9280;50.276;18.650;2022-08-19T13:12:25;10.67;;;7.03;;
18308;SDS011;9280;50.276;18.650;2022-08-19T13:15:11;12.53;;;7.67;;
18308;SDS011;9280;50.276;18.650;2022-08-19T13:17:57;15.83;;;6.77;;
18308;SDS011;9280;50.276;18.650;2022-08-19T13:20:43;13.03;;;6.90;;
18308;SDS011;9280;50.276;18.650;2022-08-19T13:23:28;10.57;;;6.50;;
18308;SDS011;9280;50.276;18.650;2022-08-19T13:26:16;14.73;;;7.67;;
18308;SDS011;9280;50.276;18.650;2022-08-19T13:29:02;24.00;;;13.07;;
18308;SDS011;9280;50.276;18.650;2022-08-19T13:32:05;23.90;;;12.73;;
18308;SDS011;9280;50.276;18.650;2022-08-19T13:35:09;23.83;;;14.40;;
18308;SDS011;9280;50.276;18.650;2022-08-19T13:37:55;16.67;;;9.07;;
18308;SDS011;9280;50.276;18.650;2022-08-19T13:40:41;45.08;;;29.17;;
18308;SDS011;9280;50.276;18.650;2022-08-19T13:43:28;14.77;;;8.02;;
18308;SDS011;9280;50.276;18.650;2022-08-19T13:46:14;15.57;;;10.43;;
18308;SDS011;9280;50.276;18.650;2022-08-19T13:49:00;24.63;;;15.45;;
18308;SDS011;9280;50.276;18.650;2022-08-19T13:51:48;17.00;;;7.75;;
18308;SDS011;9280;50.276;18.650;2022-08-19T13:54:34;24.80;;;12.77;;
18308;SDS011;9280;50.276;18.650;2022-08-19T13:57:20;16.52;;;6.88;;
18308;SDS011;9280;50.276;18.650;2022-08-19T14:00:07;17.15;;;6.97;;
18308;SDS011;9280;50.276;18.650;2022-08-19T14:02:55;18.38;;;8.65;;
18308;SDS011;9280;50.276;18.650;2022-08-19T14:05:42;12.25;;;7.20;;
18308;SDS011;9280;50.276;18.650;2022-08-19T14:08:28;38.50;;;24.98;;
18308;SDS011;9280;50.276;18.650;2022-08-19T14:11:16;15.43;;;7.93;;
18308;SDS011;9280;50.276;18.650;2022-08-19T14:14:02;12.00;;;6.07;;
18308;SDS011;9280;50.276;18.650;2022-08-19T14:16:48;12.20;;;6.18;;
18308;SDS011;9280;50.276;18.650;2022-08-19T14:19:36;11.85;;;5.93;;
18308;SDS011;9280;50.276;18.650;2022-08-19T14:22:21;9.95;;;6.18;;
18308;SDS011;9280;50.276;18.650;2022-08-19T14:25:08;15.57;;;6.43;;
18308;SDS011;9280;50.276;18.650;2022-08-19T14:27:57;16.73;;;9.50;;
18308;SDS011;9280;50.276;18.650;2022-08-19T14:30:44;16.38;;;6.72;;
18308;SDS011;9280;50.276;18.650;2022-08-19T14:33:30;13.07;;;6.47;;
18308;SDS011;9280;50.276;18.650;2022-08-19T14:36:17;14.68;;;6.47;;
18308;SDS011;9280;50.276;18.650;2022-08-19T14:39:04;10.15;;;5.70;;
18308;SDS011;9280;50.276;18.650;2022-08-19T14:41:51;19.40;;;5.95;;
18308;SDS011;9280;50.276;18.650;2022-08-19T14:44:37;10.50;;;8.57;;
18308;SDS011;9280;50.276;18.650;2022-08-19T14:47:23;18.02;;;6.28;;
18308;SDS011;9280;50.276;18.650;2022-08-19T14:50:10;9.30;;;5.60;;
18308;SDS011;9280;50.276;18.650;2022-08-19T14:52:58;6.25;;;5.07;;
18308;SDS011;9280;50.276;18.650;2022-08-19T14:55:45;12.10;;;5.15;;
18308;SDS011;9280;50.276;18.650;2022-08-19T14:58:31;9.70;;;5.75;;
18308;SDS011;9280;50.276;18.650;2022-08-19T15:01:17;9.48;;;5.28;;
18308;SDS011;9280;50.276;18.650;2022-08-19T15:04:05;7.85;;;5.00;;
18308;SDS011;9280;50.276;18.650;2022-08-19T15:06:52;19.55;;;6.47;;
18308;SDS011;9280;50.276;18.650;2022-08-19T15:09:38;14.23;;;6.05;;
18308;SDS011;9280;50.276;18.650;2022-08-19T15:12:25;16.17;;;6.55;;
18308;SDS011;9280;50.276;18.650;2022-08-19T15:15:12;12.52;;;6.40;;
18308;SDS011;9280;50.276;18.650;2022-08-19T15:18:01;14.43;;;5.95;;
18308;SDS011;9280;50.276;18.650;2022-08-19T15:20:48;13.40;;;5.65;;
18308;SDS011;9280;50.276;18.650;2022-08-19T15:23:36;13.18;;;5.68;;
18308;SDS011;9280;50.276;18.650;2022-08-19T15:26:22;17.33;;;5.20;;
18308;SDS011;9280;50.276;18.650;2022-08-19T15:29:08;10.77;;;5.87;;
18308;SDS011;9280;50.276;18.650;2022-08-19T15:31:58;15.07;;;5.80;;
18308;SDS011;9280;50.276;18.650;2022-08-19T15:34:44;18.90;;;6.47;;
18308;SDS011;9280;50.276;18.650;2022-08-19T15:37:32;12.40;;;5.67;;
18308;SDS011;9280;50.276;18.650;2022-08-19T15:40:20;13.93;;;5.90;;
18308;SDS011;9280;50.276;18.650;2022-08-19T15:43:07;22.47;;;6.40;;
18308;SDS011;9280;50.276;18.650;2022-08-19T15:45:52;14.43;;;5.40;;
18308;SDS011;9280;50.276;18.650;2022-08-19T15:48:38;18.57;;;5.67;;
18308;SDS011;9280;50.276;18.650;2022-08-19T15:51:24;23.83;;;6.47;;
18308;SDS011;9280;50.276;18.650;2022-08-19T15:54:11;20.70;;;6.70;;
18308;SDS011;9280;50.276;18.650;2022-08-19T15:57:00;19.40;;;7.10;;
18308;SDS011;9280;50.276;18.650;2022-08-19T16:00:04;18.83;;;7.83;;
18308;SDS011;9280;50.276;18.650;2022-08-19T16:03:14;27.90;;;9.53;;
18308;SDS011;9280;50.276;18.650;2022-08-19T16:06:18;27.67;;;9.97;;
18308;SDS011;9280;50.276;18.650;2022-08-19T16:09:10;38.87;;;11.80;;
18308;SDS011;9280;50.276;18.650;2022-08-19T16:11:56;17.60;;;5.67;;
18308;SDS011;9280;50.276;18.650;2022-08-19T16:14:46;23.00;;;8.23;;
18308;SDS011;9280;50.276;18.650;2022-08-19T16:17:32;24.40;;;8.17;;
18308;SDS011;9280;50.276;18.650;2022-08-19T16:20:18;16.13;;;9.07;;
18308;SDS011;9280;50.276;18.650;2022-08-19T16:23:05;18.03;;;9.80;;
18308;SDS011;9280;50.276;18.650;2022-08-19T16:25:51;17.63;;;10.63;;
18308;SDS011;9280;50.276;18.650;2022-08-19T16:28:36;19.53;;;10.47;;